首页
METAR-TAF:

METAR-TAF

机场 :

丹佛國際機場

丹佛, 科羅拉多州, 美国

纬度: 39-49-58N, 经度: 104-39-27W, 海拔: 1655米

当前天气观测

该预报发布于47分钟前的22:53 UTC
风速9节,风向东北
温度 24°C
湿度 10%
气压 1004 hPa
能見度: 16.1公里
多云层高于22000英尺
多云层高于25000英尺

METAR: KDEN 172253Z 04009KT 10SM BKN220 BKN250 24/M09 A2966 RMK AO2 SLP972 T02441094

时间: 17:40 (23:40 UTC)

预报

该预报发布于3小时和31分钟前的20:09 UTC
预报有效从17日的 20点(UTC)到 18日的 24点(UTC)
风速8节,风向西北
能見度: 10公里
少量云层高于12000英尺
多云层高于22000英尺
从 18日的 0000点(UTC)
风速8节,风向北转东北
能見度: 10公里
少量云层高于12000英尺
多云层高于22000英尺
从 18日的 0500点(UTC)
风速10节,风向南转西南
能見度: 10公里
少量云层高于12000英尺
多云层高于22000英尺
从 18日的 1500点(UTC)
风速14节,风向北转东北,有时为24节阵风
能見度: 10公里
散云层高于12000英尺
多云层高于18000英尺
从 18日的 2100点(UTC)
风速12节,风向西北,有时为20节阵风
能見度: 10公里
散云层高于10000英尺
散云层高于20000英尺

TAF: KDEN 172009Z 1720/1824 32008KT P6SM FEW120 BKN220 FM180000 02008KT P6SM FEW120 BKN220 FM180500 21010KT P6SM FEW120 BKN220 FM181500 02014G24KT P6SM SCT120 BKN180 FM182100 32012G20KT P6SM SCT100 SCT200

超过4000个机场的气象观测和天气预报(METAR&TAF报告)。

可查询的气象台以黄色和红色小点在地图上表示。

将鼠标移到小点上方,可查看气象台名称。

然后点击查看天气观测和预报。

如需切换地图:点击带黑十字的绿色按钮放大地图;点击带横线的绿色按钮缩小地图;或者点击绿色箭头查看邻近地区的地图。


METAR-TAF: